sensor_id;sensor_type;location;lat;lon;timestamp;P1;durP1;ratioP1;P2;durP2;ratioP2
71896;SDS011;59767;51.344;12.362;2023-01-05T00:00:09;14.70;;;2.03;;
71896;SDS011;59767;51.344;12.362;2023-01-05T00:03:14;13.25;;;1.85;;
71896;SDS011;59767;51.344;12.362;2023-01-05T00:06:18;13.45;;;1.90;;
71896;SDS011;59767;51.344;12.362;2023-01-05T00:09:22;12.98;;;1.90;;
71896;SDS011;59767;51.344;12.362;2023-01-05T00:12:26;13.32;;;1.67;;
71896;SDS011;59767;51.344;12.362;2023-01-05T00:15:49;14.93;;;2.10;;
71896;SDS011;59767;51.344;12.362;2023-01-05T00:19:12;8.52;;;2.20;;
71896;SDS011;59767;51.344;12.362;2023-01-05T00:22:44;14.18;;;2.10;;
71896;SDS011;59767;51.344;12.362;2023-01-05T00:25:50;11.77;;;1.92;;
71896;SDS011;59767;51.344;12.362;2023-01-05T00:28:54;15.40;;;2.40;;
71896;SDS011;59767;51.344;12.362;2023-01-05T00:31:59;12.65;;;2.00;;
71896;SDS011;59767;51.344;12.362;2023-01-05T00:35:03;12.13;;;1.80;;
71896;SDS011;59767;51.344;12.362;2023-01-05T00:38:07;10.40;;;1.60;;
71896;SDS011;59767;51.344;12.362;2023-01-05T00:41:12;9.57;;;1.60;;
71896;SDS011;59767;51.344;12.362;2023-01-05T00:44:15;11.27;;;1.75;;
71896;SDS011;59767;51.344;12.362;2023-01-05T00:47:19;11.10;;;2.17;;
71896;SDS011;59767;51.344;12.362;2023-01-05T00:50:23;11.77;;;2.03;;
71896;SDS011;59767;51.344;12.362;2023-01-05T00:53:27;12.02;;;2.08;;
71896;SDS011;59767;51.344;12.362;2023-01-05T00:56:31;12.05;;;1.95;;
71896;SDS011;59767;51.344;12.362;2023-01-05T00:59:35;13.02;;;1.98;;
71896;SDS011;59767;51.344;12.362;2023-01-05T01:02:40;11.50;;;1.85;;
71896;SDS011;59767;51.344;12.362;2023-01-05T01:05:44;11.65;;;2.03;;
71896;SDS011;59767;51.344;12.362;2023-01-05T01:08:48;14.43;;;1.90;;
71896;SDS011;59767;51.344;12.362;2023-01-05T01:11:53;14.63;;;2.28;;
71896;SDS011;59767;51.344;12.362;2023-01-05T01:14:57;10.73;;;2.10;;
71896;SDS011;59767;51.344;12.362;2023-01-05T01:18:01;13.25;;;2.20;;
71896;SDS011;59767;51.344;12.362;2023-01-05T01:21:05;10.63;;;1.63;;
71896;SDS011;59767;51.344;12.362;2023-01-05T01:24:21;13.10;;;2.45;;
71896;SDS011;59767;51.344;12.362;2023-01-05T01:27:29;12.63;;;2.08;;
71896;SDS011;59767;51.344;12.362;2023-01-05T01:30:36;11.80;;;1.67;;
71896;SDS011;59767;51.344;12.362;2023-01-05T01:33:41;9.43;;;1.80;;
71896;SDS011;59767;51.344;12.362;2023-01-05T01:36:45;10.55;;;1.95;;
71896;SDS011;59767;51.344;12.362;2023-01-05T01:39:50;12.60;;;1.90;;
71896;SDS011;59767;51.344;12.362;2023-01-05T01:42:53;7.18;;;1.40;;
71896;SDS011;59767;51.344;12.362;2023-01-05T01:45:57;11.27;;;2.22;;
71896;SDS011;59767;51.344;12.362;2023-01-05T01:49:03;13.00;;;1.90;;
71896;SDS011;59767;51.344;12.362;2023-01-05T01:52:11;11.95;;;1.85;;
71896;SDS011;59767;51.344;12.362;2023-01-05T01:55:15;9.57;;;2.35;;
71896;SDS011;59767;51.344;12.362;2023-01-05T01:58:22;16.45;;;2.30;;
71896;SDS011;59767;51.344;12.362;2023-01-05T02:01:30;11.85;;;2.30;;
71896;SDS011;59767;51.344;12.362;2023-01-05T02:04:35;19.33;;;2.40;;
71896;SDS011;59767;51.344;12.362;2023-01-05T02:07:45;16.75;;;2.50;;
71896;SDS011;59767;51.344;12.362;2023-01-05T02:10:54;16.83;;;2.60;;
71896;SDS011;59767;51.344;12.362;2023-01-05T02:21:06;16.23;;;2.60;;
71896;SDS011;59767;51.344;12.362;2023-01-05T02:37:27;20.23;;;3.00;;
71896;SDS011;59767;51.344;12.362;2023-01-05T02:40:38;18.75;;;2.65;;
71896;SDS011;59767;51.344;12.362;2023-01-05T02:43:46;19.65;;;2.63;;
71896;SDS011;59767;51.344;12.362;2023-01-05T02:46:57;19.50;;;2.67;;
71896;SDS011;59767;51.344;12.362;2023-01-05T02:50:19;20.80;;;2.78;;
71896;SDS011;59767;51.344;12.362;2023-01-05T02:53:25;17.67;;;2.70;;
71896;SDS011;59767;51.344;12.362;2023-01-05T02:56:36;17.05;;;2.80;;
71896;SDS011;59767;51.344;12.362;2023-01-05T02:59:45;22.65;;;3.30;;
71896;SDS011;59767;51.344;12.362;2023-01-05T03:02:52;14.35;;;2.38;;
71896;SDS011;59767;51.344;12.362;2023-01-05T03:06:24;16.15;;;2.30;;
71896;SDS011;59767;51.344;12.362;2023-01-05T03:09:50;16.60;;;2.67;;
71896;SDS011;59767;51.344;12.362;2023-01-05T03:12:55;19.10;;;2.78;;
71896;SDS011;59767;51.344;12.362;2023-01-05T03:16:24;16.17;;;2.42;;
71896;SDS011;59767;51.344;12.362;2023-01-05T03:19:34;17.05;;;2.53;;
71896;SDS011;59767;51.344;12.362;2023-01-05T03:22:42;22.15;;;3.13;;
71896;SDS011;59767;51.344;12.362;2023-01-05T03:26:07;16.35;;;2.63;;
71896;SDS011;59767;51.344;12.362;2023-01-05T03:29:32;15.75;;;2.67;;
71896;SDS011;59767;51.344;12.362;2023-01-05T03:32:58;16.92;;;2.45;;
71896;SDS011;59767;51.344;12.362;2023-01-05T03:36:26;14.75;;;2.30;;
71896;SDS011;59767;51.344;12.362;2023-01-05T03:39:32;15.68;;;2.53;;
71896;SDS011;59767;51.344;12.362;2023-01-05T03:42:38;14.98;;;2.35;;
71896;SDS011;59767;51.344;12.362;2023-01-05T03:45:44;18.42;;;2.92;;
71896;SDS011;59767;51.344;12.362;2023-01-05T03:48:55;16.90;;;2.40;;
71896;SDS011;59767;51.344;12.362;2023-01-05T03:51:59;12.48;;;2.25;;
71896;SDS011;59767;51.344;12.362;2023-01-05T03:55:03;16.27;;;2.38;;
71896;SDS011;59767;51.344;12.362;2023-01-05T03:58:08;13.93;;;2.28;;
71896;SDS011;59767;51.344;12.362;2023-01-05T04:01:12;18.85;;;2.40;;
71896;SDS011;59767;51.344;12.362;2023-01-05T04:04:16;15.88;;;2.45;;
71896;SDS011;59767;51.344;12.362;2023-01-05T04:07:21;14.55;;;2.40;;
71896;SDS011;59767;51.344;12.362;2023-01-05T04:10:25;15.45;;;3.03;;
71896;SDS011;59767;51.344;12.362;2023-01-05T04:13:29;14.30;;;2.08;;
71896;SDS011;59767;51.344;12.362;2023-01-05T04:16:33;15.02;;;2.20;;
71896;SDS011;59767;51.344;12.362;2023-01-05T04:19:37;13.75;;;2.13;;
71896;SDS011;59767;51.344;12.362;2023-01-05T04:22:42;13.38;;;2.50;;
71896;SDS011;59767;51.344;12.362;2023-01-05T04:25:46;13.82;;;2.10;;
71896;SDS011;59767;51.344;12.362;2023-01-05T04:28:50;13.60;;;2.35;;
71896;SDS011;59767;51.344;12.362;2023-01-05T04:31:54;16.42;;;2.10;;
71896;SDS011;59767;51.344;12.362;2023-01-05T04:34:58;14.63;;;2.70;;
71896;SDS011;59767;51.344;12.362;2023-01-05T04:38:11;18.85;;;2.63;;
71896;SDS011;59767;51.344;12.362;2023-01-05T04:41:15;14.38;;;2.13;;
71896;SDS011;59767;51.344;12.362;2023-01-05T04:44:19;16.27;;;2.30;;
71896;SDS011;59767;51.344;12.362;2023-01-05T04:47:24;17.30;;;2.58;;
71896;SDS011;59767;51.344;12.362;2023-01-05T04:50:27;13.13;;;2.58;;
71896;SDS011;59767;51.344;12.362;2023-01-05T04:53:32;18.70;;;2.70;;
71896;SDS011;59767;51.344;12.362;2023-01-05T04:56:36;12.52;;;2.20;;
71896;SDS011;59767;51.344;12.362;2023-01-05T04:59:40;18.80;;;2.50;;
71896;SDS011;59767;51.344;12.362;2023-01-05T05:02:44;16.85;;;2.20;;
71896;SDS011;59767;51.344;12.362;2023-01-05T05:05:49;16.35;;;2.80;;
71896;SDS011;59767;51.344;12.362;2023-01-05T05:08:55;14.65;;;2.30;;
71896;SDS011;59767;51.344;12.362;2023-01-05T05:11:59;12.13;;;2.00;;
71896;SDS011;59767;51.344;12.362;2023-01-05T05:15:03;16.60;;;2.70;;
71896;SDS011;59767;51.344;12.362;2023-01-05T05:18:08;16.10;;;2.53;;
71896;SDS011;59767;51.344;12.362;2023-01-05T05:21:13;15.30;;;2.30;;
71896;SDS011;59767;51.344;12.362;2023-01-05T05:24:17;15.75;;;2.05;;
71896;SDS011;59767;51.344;12.362;2023-01-05T05:27:21;16.73;;;3.17;;
71896;SDS011;59767;51.344;12.362;2023-01-05T05:30:25;17.80;;;2.75;;
71896;SDS011;59767;51.344;12.362;2023-01-05T05:33:29;12.50;;;2.20;;
71896;SDS011;59767;51.344;12.362;2023-01-05T05:36:33;14.68;;;2.42;;
71896;SDS011;59767;51.344;12.362;2023-01-05T05:39:39;12.15;;;2.15;;
71896;SDS011;59767;51.344;12.362;2023-01-05T05:42:43;13.88;;;2.58;;
71896;SDS011;59767;51.344;12.362;2023-01-05T05:45:47;17.63;;;2.97;;
71896;SDS011;59767;51.344;12.362;2023-01-05T05:48:54;16.73;;;2.72;;
71896;SDS011;59767;51.344;12.362;2023-01-05T05:51:58;17.20;;;3.25;;
71896;SDS011;59767;51.344;12.362;2023-01-05T05:55:02;13.98;;;2.30;;
71896;SDS011;59767;51.344;12.362;2023-01-05T05:58:06;16.58;;;2.28;;
71896;SDS011;59767;51.344;12.362;2023-01-05T06:01:11;17.58;;;2.67;;
71896;SDS011;59767;51.344;12.362;2023-01-05T06:04:16;13.55;;;2.33;;
71896;SDS011;59767;51.344;12.362;2023-01-05T06:07:21;17.95;;;3.00;;
71896;SDS011;59767;51.344;12.362;2023-01-05T06:10:25;18.15;;;2.50;;
71896;SDS011;59767;51.344;12.362;2023-01-05T06:13:29;17.83;;;2.65;;
71896;SDS011;59767;51.344;12.362;2023-01-05T06:16:33;16.17;;;2.67;;
71896;SDS011;59767;51.344;12.362;2023-01-05T06:19:37;14.98;;;2.60;;
71896;SDS011;59767;51.344;12.362;2023-01-05T06:22:42;14.15;;;2.33;;
71896;SDS011;59767;51.344;12.362;2023-01-05T06:25:46;17.55;;;2.63;;
71896;SDS011;59767;51.344;12.362;2023-01-05T06:28:50;15.82;;;2.22;;
71896;SDS011;59767;51.344;12.362;2023-01-05T06:31:54;17.58;;;2.80;;
71896;SDS011;59767;51.344;12.362;2023-01-05T06:34:59;15.95;;;2.65;;
71896;SDS011;59767;51.344;12.362;2023-01-05T06:38:03;14.07;;;2.40;;
71896;SDS011;59767;51.344;12.362;2023-01-05T06:41:07;19.25;;;3.10;;
71896;SDS011;59767;51.344;12.362;2023-01-05T06:44:11;19.08;;;3.15;;
71896;SDS011;59767;51.344;12.362;2023-01-05T06:47:15;23.35;;;2.50;;
71896;SDS011;59767;51.344;12.362;2023-01-05T06:50:20;16.33;;;2.60;;
71896;SDS011;59767;51.344;12.362;2023-01-05T06:53:24;17.67;;;3.58;;
71896;SDS011;59767;51.344;12.362;2023-01-05T06:56:28;19.38;;;2.45;;
71896;SDS011;59767;51.344;12.362;2023-01-05T06:59:32;15.90;;;2.50;;
71896;SDS011;59767;51.344;12.362;2023-01-05T07:02:36;13.40;;;2.25;;
71896;SDS011;59767;51.344;12.362;2023-01-05T07:05:41;13.95;;;2.47;;
71896;SDS011;59767;51.344;12.362;2023-01-05T07:08:45;18.23;;;2.58;;
71896;SDS011;59767;51.344;12.362;2023-01-05T07:11:49;16.25;;;2.28;;
71896;SDS011;59767;51.344;12.362;2023-01-05T07:14:53;14.35;;;2.63;;
71896;SDS011;59767;51.344;12.362;2023-01-05T07:18:00;18.00;;;2.72;;
71896;SDS011;59767;51.344;12.362;2023-01-05T07:21:04;15.07;;;2.60;;
71896;SDS011;59767;51.344;12.362;2023-01-05T07:24:08;17.75;;;2.80;;
71896;SDS011;59767;51.344;12.362;2023-01-05T07:27:12;18.23;;;2.70;;
71896;SDS011;59767;51.344;12.362;2023-01-05T07:30:17;15.40;;;2.78;;
71896;SDS011;59767;51.344;12.362;2023-01-05T07:33:21;20.65;;;2.80;;
71896;SDS011;59767;51.344;12.362;2023-01-05T07:36:26;18.02;;;2.70;;
71896;SDS011;59767;51.344;12.362;2023-01-05T07:39:30;17.48;;;3.20;;
71896;SDS011;59767;51.344;12.362;2023-01-05T07:42:34;15.73;;;2.70;;
71896;SDS011;59767;51.344;12.362;2023-01-05T07:45:38;15.50;;;2.67;;
71896;SDS011;59767;51.344;12.362;2023-01-05T07:48:42;13.02;;;2.42;;
71896;SDS011;59767;51.344;12.362;2023-01-05T07:51:47;16.17;;;2.33;;
71896;SDS011;59767;51.344;12.362;2023-01-05T07:54:51;14.00;;;2.50;;
71896;SDS011;59767;51.344;12.362;2023-01-05T07:57:55;25.83;;;3.17;;
71896;SDS011;59767;51.344;12.362;2023-01-05T08:01:04;13.20;;;2.42;;
71896;SDS011;59767;51.344;12.362;2023-01-05T08:04:11;14.85;;;2.33;;
71896;SDS011;59767;51.344;12.362;2023-01-05T08:07:15;15.55;;;3.10;;
71896;SDS011;59767;51.344;12.362;2023-01-05T08:10:20;16.42;;;2.75;;
71896;SDS011;59767;51.344;12.362;2023-01-05T08:16:56;16.42;;;2.80;;
71896;SDS011;59767;51.344;12.362;2023-01-05T08:20:00;16.00;;;2.60;;
71896;SDS011;59767;51.344;12.362;2023-01-05T08:23:04;15.05;;;2.70;;
71896;SDS011;59767;51.344;12.362;2023-01-05T08:26:10;13.77;;;2.60;;
71896;SDS011;59767;51.344;12.362;2023-01-05T08:29:16;16.58;;;2.83;;
71896;SDS011;59767;51.344;12.362;2023-01-05T08:32:20;17.88;;;2.78;;
71896;SDS011;59767;51.344;12.362;2023-01-05T08:35:24;16.50;;;2.50;;
71896;SDS011;59767;51.344;12.362;2023-01-05T08:38:28;16.15;;;2.53;;
71896;SDS011;59767;51.344;12.362;2023-01-05T08:41:33;14.63;;;2.65;;
71896;SDS011;59767;51.344;12.362;2023-01-05T08:44:39;17.75;;;3.15;;
71896;SDS011;59767;51.344;12.362;2023-01-05T08:47:43;16.38;;;2.92;;
71896;SDS011;59767;51.344;12.362;2023-01-05T08:50:47;15.32;;;2.80;;
71896;SDS011;59767;51.344;12.362;2023-01-05T08:53:52;15.02;;;2.67;;
71896;SDS011;59767;51.344;12.362;2023-01-05T08:56:56;15.18;;;2.53;;
71896;SDS011;59767;51.344;12.362;2023-01-05T09:00:01;15.10;;;2.88;;
71896;SDS011;59767;51.344;12.362;2023-01-05T09:03:06;18.67;;;3.05;;
71896;SDS011;59767;51.344;12.362;2023-01-05T09:06:11;12.90;;;2.40;;
71896;SDS011;59767;51.344;12.362;2023-01-05T09:09:16;15.40;;;2.45;;
71896;SDS011;59767;51.344;12.362;2023-01-05T09:12:20;15.50;;;2.80;;
71896;SDS011;59767;51.344;12.362;2023-01-05T09:15:24;13.82;;;2.70;;
71896;SDS011;59767;51.344;12.362;2023-01-05T09:18:28;17.38;;;2.85;;
71896;SDS011;59767;51.344;12.362;2023-01-05T09:21:32;17.35;;;2.78;;
71896;SDS011;59767;51.344;12.362;2023-01-05T09:24:36;10.80;;;2.10;;
71896;SDS011;59767;51.344;12.362;2023-01-05T09:27:41;13.93;;;2.33;;
71896;SDS011;59767;51.344;12.362;2023-01-05T09:30:45;15.23;;;2.70;;
71896;SDS011;59767;51.344;12.362;2023-01-05T09:33:55;12.05;;;2.38;;
71896;SDS011;59767;51.344;12.362;2023-01-05T09:37:00;16.00;;;3.90;;
71896;SDS011;59767;51.344;12.362;2023-01-05T09:40:04;15.10;;;2.53;;
71896;SDS011;59767;51.344;12.362;2023-01-05T09:43:11;16.98;;;3.00;;
71896;SDS011;59767;51.344;12.362;2023-01-05T09:46:27;11.98;;;2.80;;
71896;SDS011;59767;51.344;12.362;2023-01-05T09:49:35;16.27;;;3.05;;
71896;SDS011;59767;51.344;12.362;2023-01-05T09:52:42;14.85;;;2.63;;
71896;SDS011;59767;51.344;12.362;2023-01-05T09:55:46;15.48;;;2.63;;
71896;SDS011;59767;51.344;12.362;2023-01-05T09:58:52;12.98;;;2.50;;
71896;SDS011;59767;51.344;12.362;2023-01-05T10:05:37;9.50;;;2.58;;
71896;SDS011;59767;51.344;12.362;2023-01-05T10:08:45;15.25;;;2.17;;
71896;SDS011;59767;51.344;12.362;2023-01-05T10:15:52;11.40;;;2.10;;
71896;SDS011;59767;51.344;12.362;2023-01-05T10:18:57;12.48;;;2.38;;
71896;SDS011;59767;51.344;12.362;2023-01-05T10:32:21;13.30;;;2.75;;
71896;SDS011;59767;51.344;12.362;2023-01-05T10:39:14;15.50;;;2.50;;
71896;SDS011;59767;51.344;12.362;2023-01-05T10:45:53;12.98;;;2.75;;
71896;SDS011;59767;51.344;12.362;2023-01-05T10:49:18;13.38;;;2.13;;
71896;SDS011;59767;51.344;12.362;2023-01-05T10:52:27;9.60;;;2.10;;
71896;SDS011;59767;51.344;12.362;2023-01-05T10:55:32;14.30;;;2.35;;
71896;SDS011;59767;51.344;12.362;2023-01-05T10:58:45;12.88;;;2.30;;
71896;SDS011;59767;51.344;12.362;2023-01-05T11:01:49;11.65;;;2.15;;
71896;SDS011;59767;51.344;12.362;2023-01-05T11:04:55;16.02;;;2.90;;
71896;SDS011;59767;51.344;12.362;2023-01-05T11:08:20;10.15;;;2.20;;
71896;SDS011;59767;51.344;12.362;2023-01-05T11:11:27;12.30;;;2.38;;
71896;SDS011;59767;51.344;12.362;2023-01-05T11:14:32;9.18;;;2.00;;
71896;SDS011;59767;51.344;12.362;2023-01-05T11:17:45;12.32;;;2.10;;
71896;SDS011;59767;51.344;12.362;2023-01-05T11:21:09;14.60;;;2.05;;
71896;SDS011;59767;51.344;12.362;2023-01-05T11:27:26;9.25;;;1.77;;
71896;SDS011;59767;51.344;12.362;2023-01-05T11:30:31;13.98;;;2.28;;
71896;SDS011;59767;51.344;12.362;2023-01-05T11:33:36;8.32;;;1.60;;
71896;SDS011;59767;51.344;12.362;2023-01-05T11:36:42;8.50;;;1.67;;
71896;SDS011;59767;51.344;12.362;2023-01-05T11:40:00;10.65;;;2.00;;
71896;SDS011;59767;51.344;12.362;2023-01-05T11:43:10;12.73;;;2.03;;
71896;SDS011;59767;51.344;12.362;2023-01-05T11:46:15;12.25;;;1.83;;
71896;SDS011;59767;51.344;12.362;2023-01-05T11:49:20;12.20;;;1.80;;
71896;SDS011;59767;51.344;12.362;2023-01-05T11:52:25;8.65;;;1.65;;
71896;SDS011;59767;51.344;12.362;2023-01-05T11:55:35;11.05;;;2.00;;
71896;SDS011;59767;51.344;12.362;2023-01-05T11:58:42;13.57;;;2.55;;
71896;SDS011;59767;51.344;12.362;2023-01-05T12:01:59;12.27;;;2.22;;
71896;SDS011;59767;51.344;12.362;2023-01-05T12:05:29;10.60;;;1.85;;
71896;SDS011;59767;51.344;12.362;2023-01-05T12:09:03;13.68;;;1.98;;
71896;SDS011;59767;51.344;12.362;2023-01-05T12:22:23;8.43;;;1.60;;
71896;SDS011;59767;51.344;12.362;2023-01-05T12:25:41;12.60;;;1.83;;
71896;SDS011;59767;51.344;12.362;2023-01-05T12:32:29;10.40;;;2.00;;
71896;SDS011;59767;51.344;12.362;2023-01-05T12:36:02;10.70;;;2.00;;
71896;SDS011;59767;51.344;12.362;2023-01-05T12:49:18;7.03;;;1.60;;
71896;SDS011;59767;51.344;12.362;2023-01-05T12:52:32;7.53;;;1.57;;
71896;SDS011;59767;51.344;12.362;2023-01-05T12:55:42;8.93;;;2.00;;
71896;SDS011;59767;51.344;12.362;2023-01-05T13:05:50;10.63;;;1.75;;
71896;SDS011;59767;51.344;12.362;2023-01-05T13:09:01;11.18;;;1.90;;
71896;SDS011;59767;51.344;12.362;2023-01-05T13:12:09;13.55;;;2.50;;
71896;SDS011;59767;51.344;12.362;2023-01-05T13:15:26;12.18;;;1.95;;
71896;SDS011;59767;51.344;12.362;2023-01-05T13:18:43;14.07;;;2.25;;
71896;SDS011;59767;51.344;12.362;2023-01-05T13:21:51;11.50;;;2.40;;
71896;SDS011;59767;51.344;12.362;2023-01-05T13:24:58;13.48;;;2.50;;
71896;SDS011;59767;51.344;12.362;2023-01-05T13:28:12;13.82;;;2.42;;
71896;SDS011;59767;51.344;12.362;2023-01-05T13:41:55;13.63;;;3.13;;
71896;SDS011;59767;51.344;12.362;2023-01-05T13:48:25;11.68;;;2.42;;
71896;SDS011;59767;51.344;12.362;2023-01-05T13:54:57;11.27;;;2.40;;
71896;SDS011;59767;51.344;12.362;2023-01-05T13:58:13;10.43;;;2.25;;
71896;SDS011;59767;51.344;12.362;2023-01-05T14:01:37;11.15;;;2.08;;
71896;SDS011;59767;51.344;12.362;2023-01-05T14:04:44;16.52;;;2.47;;
71896;SDS011;59767;51.344;12.362;2023-01-05T14:07:50;14.52;;;2.55;;
71896;SDS011;59767;51.344;12.362;2023-01-05T14:14:30;11.55;;;2.25;;
71896;SDS011;59767;51.344;12.362;2023-01-05T14:17:54;8.63;;;1.90;;
71896;SDS011;59767;51.344;12.362;2023-01-05T14:21:10;13.73;;;1.83;;
71896;SDS011;59767;51.344;12.362;2023-01-05T14:24:38;12.25;;;2.40;;
71896;SDS011;59767;51.344;12.362;2023-01-05T14:34:30;12.23;;;2.20;;
71896;SDS011;59767;51.344;12.362;2023-01-05T14:37:37;10.63;;;2.05;;
71896;SDS011;59767;51.344;12.362;2023-01-05T14:40:44;11.70;;;2.25;;
71896;SDS011;59767;51.344;12.362;2023-01-05T14:43:54;14.18;;;2.20;;
71896;SDS011;59767;51.344;12.362;2023-01-05T14:47:01;5.68;;;1.77;;
71896;SDS011;59767;51.344;12.362;2023-01-05T14:50:23;11.07;;;2.10;;
71896;SDS011;59767;51.344;12.362;2023-01-05T14:53:44;11.32;;;1.90;;
71896;SDS011;59767;51.344;12.362;2023-01-05T14:57:19;12.50;;;2.33;;
71896;SDS011;59767;51.344;12.362;2023-01-05T15:04:12;10.23;;;2.00;;
71896;SDS011;59767;51.344;12.362;2023-01-05T15:17:21;14.43;;;2.25;;
71896;SDS011;59767;51.344;12.362;2023-01-05T15:37:56;13.95;;;2.05;;
71896;SDS011;59767;51.344;12.362;2023-01-05T15:41:17;18.15;;;2.45;;
71896;SDS011;59767;51.344;12.362;2023-01-05T15:44:24;8.00;;;1.75;;
71896;SDS011;59767;51.344;12.362;2023-01-05T15:47:35;6.65;;;1.50;;
71896;SDS011;59767;51.344;12.362;2023-01-05T15:53:55;4.43;;;1.42;;
71896;SDS011;59767;51.344;12.362;2023-01-05T15:57:02;5.15;;;1.50;;
71896;SDS011;59767;51.344;12.362;2023-01-05T16:03:23;6.63;;;1.73;;
71896;SDS011;59767;51.344;12.362;2023-01-05T16:06:31;4.30;;;1.33;;
71896;SDS011;59767;51.344;12.362;2023-01-05T16:09:37;7.45;;;1.52;;
71896;SDS011;59767;51.344;12.362;2023-01-05T16:12:42;5.45;;;1.42;;
71896;SDS011;59767;51.344;12.362;2023-01-05T16:15:48;6.80;;;1.80;;
71896;SDS011;59767;51.344;12.362;2023-01-05T16:18:58;5.30;;;1.60;;
71896;SDS011;59767;51.344;12.362;2023-01-05T16:22:07;6.03;;;1.90;;
71896;SDS011;59767;51.344;12.362;2023-01-05T16:25:26;6.80;;;1.90;;
71896;SDS011;59767;51.344;12.362;2023-01-05T16:28:32;7.45;;;1.90;;
71896;SDS011;59767;51.344;12.362;2023-01-05T16:31:36;4.75;;;1.85;;
71896;SDS011;59767;51.344;12.362;2023-01-05T16:34:42;5.55;;;1.75;;
71896;SDS011;59767;51.344;12.362;2023-01-05T16:41:20;6.22;;;1.80;;
71896;SDS011;59767;51.344;12.362;2023-01-05T16:44:26;7.40;;;1.77;;
71896;SDS011;59767;51.344;12.362;2023-01-05T16:47:37;4.40;;;1.65;;
71896;SDS011;59767;51.344;12.362;2023-01-05T16:50:52;5.95;;;2.40;;
71896;SDS011;59767;51.344;12.362;2023-01-05T16:54:12;7.20;;;1.55;;
71896;SDS011;59767;51.344;12.362;2023-01-05T16:57:31;6.57;;;1.60;;
71896;SDS011;59767;51.344;12.362;2023-01-05T17:00:42;9.25;;;2.50;;
71896;SDS011;59767;51.344;12.362;2023-01-05T17:03:46;4.70;;;1.95;;
71896;SDS011;59767;51.344;12.362;2023-01-05T17:06:51;10.10;;;2.28;;
71896;SDS011;59767;51.344;12.362;2023-01-05T17:09:56;7.18;;;1.67;;
71896;SDS011;59767;51.344;12.362;2023-01-05T17:13:02;6.80;;;1.95;;
71896;SDS011;59767;51.344;12.362;2023-01-05T17:16:10;8.32;;;1.83;;
71896;SDS011;59767;51.344;12.362;2023-01-05T17:19:18;7.43;;;1.98;;
71896;SDS011;59767;51.344;12.362;2023-01-05T17:22:24;6.30;;;1.73;;
71896;SDS011;59767;51.344;12.362;2023-01-05T17:25:30;5.97;;;1.80;;
71896;SDS011;59767;51.344;12.362;2023-01-05T17:28:36;7.88;;;1.98;;
71896;SDS011;59767;51.344;12.362;2023-01-05T17:31:42;4.82;;;1.85;;
71896;SDS011;59767;51.344;12.362;2023-01-05T17:34:46;8.10;;;2.15;;
71896;SDS011;59767;51.344;12.362;2023-01-05T17:37:50;8.35;;;2.10;;
71896;SDS011;59767;51.344;12.362;2023-01-05T17:40:54;5.60;;;1.98;;
71896;SDS011;59767;51.344;12.362;2023-01-05T17:43:58;7.38;;;2.22;;
71896;SDS011;59767;51.344;12.362;2023-01-05T17:47:03;6.97;;;2.30;;
71896;SDS011;59767;51.344;12.362;2023-01-05T17:50:08;8.45;;;2.20;;
71896;SDS011;59767;51.344;12.362;2023-01-05T17:53:16;9.40;;;2.30;;
71896;SDS011;59767;51.344;12.362;2023-01-05T17:56:20;9.48;;;2.78;;
71896;SDS011;59767;51.344;12.362;2023-01-05T17:59:25;10.38;;;2.60;;
71896;SDS011;59767;51.344;12.362;2023-01-05T18:02:30;8.85;;;2.55;;
71896;SDS011;59767;51.344;12.362;2023-01-05T18:05:35;7.65;;;2.47;;
71896;SDS011;59767;51.344;12.362;2023-01-05T18:08:39;9.23;;;2.72;;
71896;SDS011;59767;51.344;12.362;2023-01-05T18:11:48;9.40;;;2.55;;
71896;SDS011;59767;51.344;12.362;2023-01-05T18:14:55;7.40;;;2.53;;
71896;SDS011;59767;51.344;12.362;2023-01-05T18:17:59;13.77;;;2.72;;
71896;SDS011;59767;51.344;12.362;2023-01-05T18:21:04;10.60;;;2.80;;
71896;SDS011;59767;51.344;12.362;2023-01-05T18:24:09;6.45;;;2.30;;
71896;SDS011;59767;51.344;12.362;2023-01-05T18:27:13;8.60;;;2.45;;
71896;SDS011;59767;51.344;12.362;2023-01-05T18:30:17;9.45;;;2.40;;
71896;SDS011;59767;51.344;12.362;2023-01-05T18:33:22;5.43;;;2.00;;
71896;SDS011;59767;51.344;12.362;2023-01-05T18:36:26;7.97;;;2.00;;
71896;SDS011;59767;51.344;12.362;2023-01-05T18:39:30;7.40;;;2.20;;
71896;SDS011;59767;51.344;12.362;2023-01-05T18:42:35;7.45;;;1.90;;
71896;SDS011;59767;51.344;12.362;2023-01-05T18:45:40;4.18;;;1.70;;
71896;SDS011;59767;51.344;12.362;2023-01-05T18:48:47;7.68;;;1.88;;
71896;SDS011;59767;51.344;12.362;2023-01-05T18:51:52;7.13;;;1.70;;
71896;SDS011;59767;51.344;12.362;2023-01-05T18:54:56;6.47;;;1.85;;
71896;SDS011;59767;51.344;12.362;2023-01-05T18:58:00;6.00;;;1.55;;
71896;SDS011;59767;51.344;12.362;2023-01-05T19:01:12;4.05;;;1.27;;
71896;SDS011;59767;51.344;12.362;2023-01-05T19:04:19;6.55;;;1.40;;
71896;SDS011;59767;51.344;12.362;2023-01-05T19:07:23;2.92;;;1.23;;
71896;SDS011;59767;51.344;12.362;2023-01-05T19:10:28;4.35;;;1.02;;
71896;SDS011;59767;51.344;12.362;2023-01-05T19:13:33;4.15;;;1.23;;
71896;SDS011;59767;51.344;12.362;2023-01-05T19:16:37;5.22;;;1.30;;
71896;SDS011;59767;51.344;12.362;2023-01-05T19:19:41;6.03;;;1.27;;
71896;SDS011;59767;51.344;12.362;2023-01-05T19:22:45;7.45;;;1.33;;
71896;SDS011;59767;51.344;12.362;2023-01-05T19:25:50;4.63;;;1.40;;
71896;SDS011;59767;51.344;12.362;2023-01-05T19:28:55;3.10;;;0.80;;
71896;SDS011;59767;51.344;12.362;2023-01-05T19:32:00;2.53;;;1.02;;
71896;SDS011;59767;51.344;12.362;2023-01-05T19:35:04;12.70;;;3.70;;
71896;SDS011;59767;51.344;12.362;2023-01-05T19:38:10;4.15;;;1.13;;
71896;SDS011;59767;51.344;12.362;2023-01-05T19:41:15;5.53;;;1.10;;
71896;SDS011;59767;51.344;12.362;2023-01-05T19:44:27;5.25;;;1.10;;
71896;SDS011;59767;51.344;12.362;2023-01-05T19:47:31;5.78;;;1.35;;
71896;SDS011;59767;51.344;12.362;2023-01-05T19:50:35;4.35;;;1.50;;
71896;SDS011;59767;51.344;12.362;2023-01-05T19:53:40;5.85;;;1.55;;
71896;SDS011;59767;51.344;12.362;2023-01-05T19:56:45;8.18;;;1.98;;
71896;SDS011;59767;51.344;12.362;2023-01-05T19:59:49;6.85;;;1.98;;
71896;SDS011;59767;51.344;12.362;2023-01-05T20:02:54;5.47;;;1.60;;
71896;SDS011;59767;51.344;12.362;2023-01-05T20:06:03;4.65;;;1.50;;
71896;SDS011;59767;51.344;12.362;2023-01-05T20:09:09;8.25;;;1.50;;
71896;SDS011;59767;51.344;12.362;2023-01-05T20:12:15;4.72;;;1.25;;
71896;SDS011;59767;51.344;12.362;2023-01-05T20:15:19;6.28;;;1.50;;
71896;SDS011;59767;51.344;12.362;2023-01-05T20:18:23;5.28;;;1.70;;
71896;SDS011;59767;51.344;12.362;2023-01-05T20:21:27;6.50;;;2.03;;
71896;SDS011;59767;51.344;12.362;2023-01-05T20:24:32;10.30;;;2.30;;
71896;SDS011;59767;51.344;12.362;2023-01-05T20:27:39;7.22;;;2.08;;
71896;SDS011;59767;51.344;12.362;2023-01-05T20:30:43;4.50;;;1.85;;
71896;SDS011;59767;51.344;12.362;2023-01-05T20:33:48;8.45;;;2.10;;
71896;SDS011;59767;51.344;12.362;2023-01-05T20:36:53;8.13;;;2.10;;
71896;SDS011;59767;51.344;12.362;2023-01-05T20:39:59;6.65;;;1.90;;
71896;SDS011;59767;51.344;12.362;2023-01-05T20:43:04;7.13;;;1.80;;
71896;SDS011;59767;51.344;12.362;2023-01-05T20:46:08;6.90;;;1.83;;
71896;SDS011;59767;51.344;12.362;2023-01-05T20:49:12;7.55;;;1.83;;
71896;SDS011;59767;51.344;12.362;2023-01-05T20:52:17;9.10;;;2.70;;